createdAt,value
2023-03-27T00:00:47.878Z,4.40
2023-03-27T00:03:37.993Z,4.40
2023-03-27T00:06:27.197Z,4.40
2023-03-27T00:09:17.034Z,4.30
2023-03-27T00:12:06.438Z,4.30
2023-03-27T00:14:55.550Z,4.30
2023-03-27T00:17:46.672Z,4.30
2023-03-27T00:20:37.345Z,4.20
2023-03-27T00:23:26.415Z,4.20
2023-03-27T00:26:15.321Z,4.10
2023-03-27T00:29:04.546Z,4.10
2023-03-27T00:31:53.384Z,4.10
2023-03-27T00:34:41.874Z,4.10
2023-03-27T00:37:32.351Z,4.10
2023-03-27T00:40:21.754Z,4.00
2023-03-27T00:43:26.099Z,4.00
2023-03-27T00:46:37.781Z,4.00
2023-03-27T00:49:32.632Z,4.00
2023-03-27T00:52:21.407Z,3.90
2023-03-27T00:55:16.384Z,3.90
2023-03-27T00:58:10.988Z,3.90
2023-03-27T01:00:59.673Z,3.90
2023-03-27T01:03:50.236Z,3.90
2023-03-27T01:06:41.985Z,3.90
2023-03-27T01:09:31.116Z,3.90
2023-03-27T01:12:37.817Z,3.90
2023-03-27T01:15:41.454Z,3.80
2023-03-27T01:18:46.857Z,3.80
2023-03-27T01:22:47.646Z,3.80
2023-03-27T01:26:35.508Z,3.80
2023-03-27T01:29:42.836Z,3.70
2023-03-27T01:33:27.118Z,3.70
2023-03-27T01:36:58.091Z,3.70
2023-03-27T01:40:00.301Z,3.70
2023-03-27T01:42:55.935Z,3.60
2023-03-27T01:45:52.479Z,3.60
2023-03-27T01:48:46.629Z,3.60
2023-03-27T01:51:40.448Z,3.60
2023-03-27T01:54:34.371Z,3.50
2023-03-27T01:57:29.646Z,3.50
2023-03-27T02:00:23.176Z,3.50
2023-03-27T02:03:19.007Z,3.50
2023-03-27T02:06:15.326Z,3.50
2023-03-27T02:09:11.657Z,3.50
2023-03-27T02:12:11.792Z,3.50
2023-03-27T02:15:23.910Z,3.50
2023-03-27T02:18:23.699Z,3.50
2023-03-27T02:21:14.078Z,3.50
2023-03-27T02:24:06.148Z,3.40
2023-03-27T02:27:06.453Z,3.50
2023-03-27T02:30:10.505Z,3.40
2023-03-27T02:33:14.605Z,3.40
2023-03-27T02:36:21.064Z,3.40
2023-03-27T02:39:22.617Z,3.40
2023-03-27T02:42:22.060Z,3.40
2023-03-27T02:45:35.725Z,3.40
2023-03-27T02:48:33.849Z,3.40
2023-03-27T02:51:28.038Z,3.30
2023-03-27T02:54:21.221Z,3.30
2023-03-27T02:57:16.880Z,3.30
2023-03-27T03:00:37.448Z,3.30
2023-03-27T03:03:58.456Z,3.30
2023-03-27T03:07:06.978Z,3.20
2023-03-27T03:09:56.299Z,3.20
2023-03-27T03:12:44.985Z,3.20
2023-03-27T03:15:35.031Z,3.20
2023-03-27T03:18:24.709Z,3.20
2023-03-27T03:21:13.236Z,3.20
2023-03-27T03:24:01.786Z,3.20
2023-03-27T03:26:50.672Z,3.20
2023-03-27T03:29:39.839Z,3.20
2023-03-27T03:32:39.456Z,3.10
2023-03-27T03:35:29.132Z,3.10
2023-03-27T03:38:25.004Z,3.10
2023-03-27T03:41:13.868Z,3.10
2023-03-27T03:44:02.698Z,3.10
2023-03-27T03:46:51.242Z,3.10
2023-03-27T03:49:44.060Z,3.10
2023-03-27T03:52:32.550Z,3.00
2023-03-27T03:55:21.072Z,3.00
2023-03-27T03:58:09.782Z,3.00
2023-03-27T04:00:59.327Z,3.00
2023-03-27T04:03:56.672Z,3.00
2023-03-27T04:06:47.384Z,2.90
2023-03-27T04:09:35.967Z,2.90
2023-03-27T04:12:30.707Z,2.90
2023-03-27T04:15:21.994Z,2.90
2023-03-27T04:18:30.443Z,2.80
2023-03-27T04:21:20.444Z,2.80
2023-03-27T04:24:13.981Z,2.80
2023-03-27T04:27:08.226Z,2.80
2023-03-27T04:30:03.657Z,2.80
2023-03-27T04:33:30.936Z,2.80
2023-03-27T04:36:45.237Z,2.70
2023-03-27T04:39:42.697Z,2.70
2023-03-27T04:42:32.065Z,2.70
2023-03-27T04:45:22.563Z,2.70
2023-03-27T04:48:12.557Z,2.70
2023-03-27T04:51:01.105Z,2.60
2023-03-27T04:53:56.388Z,2.60
2023-03-27T04:56:46.902Z,2.60
2023-03-27T04:59:35.456Z,2.60
2023-03-27T05:02:44.673Z,2.60
2023-03-27T05:05:41.393Z,2.50
2023-03-27T05:08:30.899Z,2.50
2023-03-27T05:11:20.400Z,2.50
2023-03-27T05:14:10.113Z,2.50
2023-03-27T05:17:00.997Z,2.50
2023-03-27T05:19:49.603Z,2.50
2023-03-27T05:22:38.196Z,2.50
2023-03-27T05:25:39.328Z,2.50
2023-03-27T05:28:32.275Z,2.40
2023-03-27T05:31:22.656Z,2.40
2023-03-27T05:34:21.809Z,2.40
2023-03-27T05:37:12.612Z,2.40
2023-03-27T05:40:25.036Z,2.40
2023-03-27T05:43:13.367Z,2.40
2023-03-27T05:46:02.628Z,2.40
2023-03-27T05:48:52.846Z,2.40
2023-03-27T05:51:46.991Z,2.40
2023-03-27T05:54:41.850Z,2.40
2023-03-27T05:57:31.810Z,2.40
2023-03-27T06:00:23.783Z,2.40
2023-03-27T06:03:13.917Z,2.40
2023-03-27T06:06:23.248Z,2.40
2023-03-27T06:09:17.083Z,2.40
2023-03-27T06:12:17.617Z,2.40
2023-03-27T06:15:08.533Z,2.40
2023-03-27T06:18:02.148Z,2.40
2023-03-27T06:20:57.015Z,2.40
2023-03-27T06:23:47.726Z,2.40
2023-03-27T06:26:37.856Z,2.40
2023-03-27T06:29:29.485Z,2.50
2023-03-27T06:32:17.925Z,2.50
2023-03-27T06:35:13.059Z,2.50
2023-03-27T06:38:12.612Z,2.50
2023-03-27T06:41:04.198Z,2.60
2023-03-27T06:44:11.589Z,2.60
2023-03-27T06:47:26.092Z,2.60
2023-03-27T06:50:47.081Z,2.60
2023-03-27T06:53:38.180Z,2.70
2023-03-27T06:56:28.454Z,2.70
2023-03-27T06:59:35.366Z,2.80
2023-03-27T07:02:25.113Z,2.80
2023-03-27T07:05:17.041Z,2.80
2023-03-27T07:08:21.175Z,2.90
2023-03-27T07:11:12.760Z,3.00
2023-03-27T07:14:24.605Z,3.00
2023-03-27T07:17:13.012Z,3.10
2023-03-27T07:20:13.914Z,3.20
2023-03-27T07:23:03.036Z,3.20
2023-03-27T07:26:20.826Z,3.30
2023-03-27T07:29:19.662Z,3.40
2023-03-27T07:32:22.303Z,3.50
2023-03-27T07:35:19.695Z,3.60
2023-03-27T07:38:26.962Z,3.70
2023-03-27T07:41:29.891Z,3.80
2023-03-27T07:44:21.490Z,3.90
2023-03-27T07:47:20.834Z,4.10
2023-03-27T07:50:11.537Z,4.20
2023-03-27T07:52:59.961Z,4.30
2023-03-27T07:55:49.055Z,4.40
2023-03-27T07:58:38.038Z,4.50
2023-03-27T08:01:27.747Z,4.60
2023-03-27T08:04:17.823Z,4.70
2023-03-27T08:07:21.555Z,4.80
2023-03-27T08:10:11.539Z,4.80
2023-03-27T08:13:13.032Z,4.90
2023-03-27T08:16:08.630Z,5.00
2023-03-27T08:18:58.598Z,5.10
2023-03-27T08:21:50.026Z,5.20
2023-03-27T08:24:38.555Z,5.30
2023-03-27T08:27:31.678Z,5.40
2023-03-27T08:30:23.516Z,5.40
2023-03-27T08:33:14.207Z,5.50
2023-03-27T08:36:04.181Z,5.60
2023-03-27T08:38:55.327Z,5.70
2023-03-27T08:41:55.089Z,5.80
2023-03-27T08:44:58.212Z,5.90
2023-03-27T08:48:07.141Z,6.00
2023-03-27T08:50:59.262Z,6.00
2023-03-27T08:53:58.098Z,6.00
2023-03-27T08:56:50.833Z,6.10
2023-03-27T08:59:40.140Z,6.10
2023-03-27T09:02:45.665Z,6.20
2023-03-27T09:05:45.288Z,6.30
2023-03-27T09:08:50.647Z,6.30
2023-03-27T09:11:59.719Z,6.30
2023-03-27T09:15:00.201Z,6.30
2023-03-27T09:17:57.311Z,6.30
2023-03-27T09:20:51.439Z,6.40
2023-03-27T09:23:46.287Z,6.50
2023-03-27T09:27:06.776Z,6.60
2023-03-27T09:30:23.158Z,6.60
2023-03-27T09:33:17.660Z,6.60
2023-03-27T09:36:09.139Z,6.50
2023-03-27T09:39:07.593Z,6.50
2023-03-27T09:42:07.456Z,6.50
2023-03-27T09:45:04.261Z,6.50
2023-03-27T09:48:03.827Z,6.50
2023-03-27T09:51:00.353Z,6.50
2023-03-27T09:53:59.782Z,6.50
2023-03-27T09:56:56.721Z,6.50
2023-03-27T10:00:07.548Z,6.50
2023-03-27T10:03:07.863Z,6.60
2023-03-27T10:06:08.345Z,6.60
2023-03-27T10:09:23.514Z,6.70
2023-03-27T10:12:21.895Z,6.70
2023-03-27T10:15:33.850Z,6.70
2023-03-27T10:18:27.086Z,6.80
2023-03-27T10:21:33.231Z,6.70
2023-03-27T10:24:33.540Z,6.70
2023-03-27T10:27:40.546Z,6.70
2023-03-27T10:31:02.730Z,6.70
2023-03-27T10:34:32.889Z,6.80
2023-03-27T10:37:50.464Z,6.80
2023-03-27T10:41:16.526Z,6.90
2023-03-27T10:44:25.507Z,7.10
2023-03-27T10:47:27.082Z,7.20
2023-03-27T10:50:22.974Z,7.40
2023-03-27T10:53:21.686Z,7.50
2023-03-27T10:56:28.198Z,7.70
2023-03-27T10:59:31.202Z,7.80
2023-03-27T11:02:43.818Z,8.00
2023-03-27T11:05:38.555Z,8.10
2023-03-27T11:08:44.051Z,8.20
2023-03-27T11:11:40.812Z,8.30
2023-03-27T11:14:39.515Z,8.30
2023-03-27T11:17:42.571Z,8.40
2023-03-27T11:20:44.235Z,8.40
2023-03-27T11:23:47.827Z,8.30
2023-03-27T11:27:00.719Z,8.20
2023-03-27T11:29:58.793Z,8.20
2023-03-27T11:33:05.900Z,8.30
2023-03-27T11:36:06.253Z,8.30
2023-03-27T11:39:19.262Z,8.20
2023-03-27T11:42:18.088Z,8.20
2023-03-27T11:45:13.942Z,8.20
2023-03-27T11:48:38.322Z,8.30
2023-03-27T11:51:45.870Z,8.30
2023-03-27T11:55:06.676Z,8.40
2023-03-27T11:58:16.787Z,8.60
2023-03-27T12:01:22.595Z,8.70
2023-03-27T12:04:46.453Z,8.80
2023-03-27T12:08:05.515Z,8.80
2023-03-27T12:10:59.412Z,8.90
2023-03-27T12:14:31.045Z,8.90
2023-03-27T12:17:44.847Z,8.80
2023-03-27T12:21:15.885Z,8.50
2023-03-27T12:24:29.482Z,8.40
2023-03-27T12:27:57.796Z,8.20
2023-03-27T12:31:13.332Z,8.20
2023-03-27T12:34:06.108Z,8.20
2023-03-27T12:36:59.179Z,8.20
2023-03-27T12:39:53.907Z,8.20
2023-03-27T12:42:52.063Z,8.10
2023-03-27T12:46:08.721Z,8.10
2023-03-27T12:48:59.980Z,8.00
2023-03-27T12:52:05.774Z,7.90
2023-03-27T12:55:44.844Z,7.90
2023-03-27T12:58:59.741Z,7.90
2023-03-27T13:02:48.620Z,8.00
2023-03-27T13:05:58.688Z,8.10
2023-03-27T13:09:33.122Z,8.20
2023-03-27T13:12:54.712Z,8.30
2023-03-27T13:16:21.233Z,8.30
2023-03-27T13:19:40.275Z,8.40
2023-03-27T13:22:57.838Z,8.50
2023-03-27T13:26:15.693Z,8.50
2023-03-27T13:29:18.566Z,8.50
2023-03-27T13:32:35.080Z,8.50
2023-03-27T13:35:42.810Z,8.50
2023-03-27T13:39:13.752Z,8.50
2023-03-27T13:42:16.031Z,8.40
2023-03-27T13:45:15.499Z,8.40
2023-03-27T13:48:50.364Z,8.50
2023-03-27T13:52:23.418Z,8.50
2023-03-27T13:55:44.655Z,8.60
2023-03-27T14:00:04.344Z,8.60
2023-03-27T14:03:56.617Z,8.70
2023-03-27T14:07:41.202Z,8.80
2023-03-27T14:10:49.426Z,8.90
2023-03-27T14:14:06.633Z,9.10
2023-03-27T14:17:17.264Z,9.20
2023-03-27T14:20:27.556Z,9.30
2023-03-27T14:23:22.497Z,9.40
2023-03-27T14:26:25.284Z,9.30
2023-03-27T14:29:16.805Z,9.30
2023-03-27T14:32:17.920Z,9.10
2023-03-27T14:35:36.564Z,8.90
2023-03-27T14:38:31.984Z,8.70
2023-03-27T14:41:23.976Z,8.60
2023-03-27T14:44:20.294Z,8.60
2023-03-27T14:47:17.564Z,8.70
2023-03-27T14:50:07.958Z,8.80
2023-03-27T14:53:09.605Z,8.80
2023-03-27T14:56:28.333Z,8.90
2023-03-27T14:59:23.528Z,8.90
2023-03-27T15:02:30.348Z,8.90
2023-03-27T15:05:23.530Z,9.00
2023-03-27T15:08:23.391Z,9.10
2023-03-27T15:11:38.829Z,9.30
2023-03-27T15:14:43.005Z,9.30
2023-03-27T15:17:38.584Z,9.40
2023-03-27T15:20:31.759Z,9.50
2023-03-27T15:23:28.376Z,9.50
2023-03-27T15:26:24.469Z,9.30
2023-03-27T15:29:19.985Z,9.10
2023-03-27T15:32:14.751Z,8.90
2023-03-27T15:35:05.185Z,8.70
2023-03-27T15:37:54.064Z,8.60
2023-03-27T15:40:46.546Z,8.60
2023-03-27T15:43:35.392Z,8.60
2023-03-27T15:46:26.840Z,8.50
2023-03-27T15:49:29.652Z,8.50
2023-03-27T15:52:31.967Z,8.40
2023-03-27T15:55:38.191Z,8.40
2023-03-27T15:58:34.087Z,8.50
2023-03-27T16:01:38.009Z,8.50
2023-03-27T16:04:37.576Z,8.70
2023-03-27T16:07:30.419Z,8.70
2023-03-27T16:10:31.459Z,8.90
2023-03-27T16:13:33.620Z,9.00
2023-03-27T16:16:27.012Z,9.10
2023-03-27T16:19:15.456Z,9.10
2023-03-27T16:22:03.867Z,9.10
2023-03-27T16:24:54.334Z,9.10
2023-03-27T16:27:49.164Z,9.10
2023-03-27T16:30:41.413Z,9.00
2023-03-27T16:33:30.033Z,8.70
2023-03-27T16:36:26.374Z,8.40
2023-03-27T16:39:14.778Z,8.10
2023-03-27T16:42:03.241Z,7.80
2023-03-27T16:44:52.358Z,7.50
2023-03-27T16:47:42.298Z,7.20
2023-03-27T16:50:31.461Z,6.90
2023-03-27T16:53:20.125Z,6.70
2023-03-27T16:56:09.363Z,6.60
2023-03-27T16:58:59.561Z,6.60
2023-03-27T17:01:49.135Z,6.60
2023-03-27T17:04:39.084Z,6.50
2023-03-27T17:07:28.559Z,6.50
2023-03-27T17:10:17.181Z,6.50
2023-03-27T17:13:05.951Z,6.50
2023-03-27T17:15:55.675Z,6.50
2023-03-27T17:18:44.604Z,6.50
2023-03-27T17:21:34.430Z,6.50
2023-03-27T17:24:22.878Z,6.50
2023-03-27T17:27:11.336Z,6.50
2023-03-27T17:29:59.981Z,6.50
2023-03-27T17:32:48.625Z,6.50
2023-03-27T17:35:39.696Z,6.40
2023-03-27T17:38:30.387Z,6.40
2023-03-27T17:41:19.746Z,6.40
2023-03-27T17:44:08.365Z,6.40
2023-03-27T17:46:57.025Z,6.40
2023-03-27T17:49:45.527Z,6.40
2023-03-27T17:52:34.089Z,6.40
2023-03-27T17:55:23.974Z,6.40
2023-03-27T17:58:13.450Z,6.30
2023-03-27T18:01:03.172Z,6.30
2023-03-27T18:03:52.150Z,6.30
2023-03-27T18:06:40.974Z,6.20
2023-03-27T18:09:29.479Z,6.20
2023-03-27T18:12:19.578Z,6.10
2023-03-27T18:15:09.505Z,6.10
2023-03-27T18:17:58.008Z,6.00
2023-03-27T18:20:51.859Z,5.90
2023-03-27T18:23:45.973Z,5.90
2023-03-27T18:26:35.943Z,5.80
2023-03-27T18:29:25.876Z,5.80
2023-03-27T18:32:14.301Z,5.80
2023-03-27T18:35:02.903Z,5.70
2023-03-27T18:37:51.510Z,5.70
2023-03-27T18:40:39.911Z,5.70
2023-03-27T18:43:28.452Z,5.70
2023-03-27T18:46:18.462Z,5.70
2023-03-27T18:49:17.491Z,5.60
2023-03-27T18:52:14.443Z,5.60
2023-03-27T18:55:02.927Z,5.60
2023-03-27T18:57:51.380Z,5.50
2023-03-27T19:00:39.917Z,5.50
2023-03-27T19:03:35.352Z,5.50
2023-03-27T19:06:25.363Z,5.50
2023-03-27T19:09:14.422Z,5.50
2023-03-27T19:12:02.985Z,5.50
2023-03-27T19:15:19.979Z,5.50
2023-03-27T19:18:14.644Z,5.50
2023-03-27T19:21:36.584Z,5.40
2023-03-27T19:24:27.685Z,5.40
2023-03-27T19:27:23.770Z,5.40
2023-03-27T19:30:15.262Z,5.30
2023-03-27T19:33:03.793Z,5.30
2023-03-27T19:35:53.965Z,5.30
2023-03-27T19:38:44.299Z,5.20
2023-03-27T19:41:32.758Z,5.20
2023-03-27T19:44:21.315Z,5.10
2023-03-27T19:47:10.251Z,5.10
2023-03-27T19:49:59.071Z,5.10
2023-03-27T19:53:05.828Z,5.10
2023-03-27T19:56:00.775Z,5.10
2023-03-27T19:58:49.346Z,5.10
2023-03-27T20:01:38.377Z,5.00
2023-03-27T20:04:27.006Z,5.00
2023-03-27T20:07:19.058Z,5.00
2023-03-27T20:10:08.752Z,5.00
2023-03-27T20:12:59.951Z,4.90
2023-03-27T20:15:51.356Z,4.90
2023-03-27T20:18:41.622Z,4.90
2023-03-27T20:21:32.369Z,4.90
2023-03-27T20:24:20.958Z,4.80
2023-03-27T20:27:19.701Z,4.80
2023-03-27T20:30:14.098Z,4.80
2023-03-27T20:33:03.427Z,4.80
2023-03-27T20:35:51.968Z,4.80
2023-03-27T20:38:40.534Z,4.80
2023-03-27T20:41:30.718Z,4.80
2023-03-27T20:44:19.136Z,4.80
2023-03-27T20:47:12.148Z,4.80
2023-03-27T20:50:05.954Z,4.80
2023-03-27T20:52:57.879Z,4.80
2023-03-27T20:55:59.030Z,4.80
2023-03-27T20:58:48.679Z,4.70
2023-03-27T21:01:38.790Z,4.70
2023-03-27T21:04:31.497Z,4.70
2023-03-27T21:07:20.466Z,4.70
2023-03-27T21:10:09.844Z,4.60
2023-03-27T21:12:58.828Z,4.60
2023-03-27T21:15:47.329Z,4.60
2023-03-27T21:18:38.243Z,4.50
2023-03-27T21:21:28.080Z,4.50
2023-03-27T21:24:16.667Z,4.50
2023-03-27T21:27:05.618Z,4.40
2023-03-27T21:29:56.562Z,4.40
2023-03-27T21:32:53.429Z,4.40
2023-03-27T21:35:51.311Z,4.40
2023-03-27T21:38:44.961Z,4.30
2023-03-27T21:41:36.405Z,4.30
2023-03-27T21:44:36.238Z,4.30
2023-03-27T21:47:37.239Z,4.30
2023-03-27T21:50:26.363Z,4.20
2023-03-27T21:53:18.679Z,4.20
2023-03-27T21:56:09.592Z,4.20
2023-03-27T21:58:58.430Z,4.10
2023-03-27T22:01:47.075Z,4.10
2023-03-27T22:04:40.415Z,4.10
2023-03-27T22:07:28.905Z,4.00
2023-03-27T22:10:20.591Z,4.00
2023-03-27T22:13:10.509Z,4.00
2023-03-27T22:15:59.135Z,4.00
2023-03-27T22:18:48.123Z,3.90
2023-03-27T22:21:36.687Z,3.90
2023-03-27T22:24:25.809Z,3.90
2023-03-27T22:27:14.320Z,3.80
2023-03-27T22:30:04.679Z,3.80
2023-03-27T22:32:53.230Z,3.80
2023-03-27T22:35:48.965Z,3.80
2023-03-27T22:38:37.623Z,3.80
2023-03-27T22:41:26.668Z,3.80
2023-03-27T22:44:15.130Z,3.70
2023-03-27T22:47:05.319Z,3.70
2023-03-27T22:49:53.828Z,3.70
2023-03-27T22:52:42.351Z,3.70
2023-03-27T22:55:30.787Z,3.60
2023-03-27T22:58:20.445Z,3.60
2023-03-27T23:01:09.159Z,3.60
2023-03-27T23:03:59.138Z,3.60
2023-03-27T23:06:48.114Z,3.60
2023-03-27T23:09:36.725Z,3.60
2023-03-27T23:12:25.311Z,3.60
2023-03-27T23:15:13.923Z,3.50
2023-03-27T23:18:02.697Z,3.60
2023-03-27T23:20:56.623Z,3.50
2023-03-27T23:23:45.629Z,3.50
2023-03-27T23:26:34.142Z,3.50
2023-03-27T23:29:22.909Z,3.50
2023-03-27T23:32:11.348Z,3.50
2023-03-27T23:34:59.833Z,3.50
2023-03-27T23:37:49.638Z,3.40
2023-03-27T23:40:38.812Z,3.40
2023-03-27T23:43:29.931Z,3.40
2023-03-27T23:46:18.587Z,3.40
2023-03-27T23:49:07.133Z,3.40
2023-03-27T23:51:55.595Z,3.30
2023-03-27T23:54:45.436Z,3.30
2023-03-27T23:57:33.889Z,3.30
